Forecast Period: 

6 pm 29th October 2020 to 6:00 am 30th October 2020 

Synopsis:

An upper level trough and a tropical wave will continue to affect the islands

Forecast:

Cloudy to overcast, hazy and breezy with pockets of moderate to heavy showers, periods of rain and scattered thunderstorms  

Weather Warning:

A flash-flood warning is in effect until 6am tomorrow;Residents and motorists in areas  prone  to  flooding  and landslides  or  near  rivers  and  streams  should  continue to be vigilant and take  the  necessary precautionary measures to protect life and property.

Winds:

 E – ESE at 20 – 40 km/h (12 – 25 mph) with higher gust near showers

Sea Conditions:  Moderate to rough in open water; swells (2.0 –  3.5 m)

Marine Warning:

Small craft operators and sea bathers should be prepared for above normal sea swells and gusty winds.
Upcoming Tides:
 High: 4:53 am 7:14 pm   
 Low:

9:49 pm(29th)

1:31 am

9:25 pm

Aviation WX

[Source: ADDS]
METAR
TVSA 300500Z 3006/3106 08014KT 9999 BKN015 TEMPO 3006/3010 SHRA SCT010CB TAF
TVSA 300500Z 3006/3106 08014KT 9999 BKN015 TEMPO 3006/3010 SHRA SCT010CB =
SR / SS: 09:57 / 21:38 UTC (Sunrise Sunset 2020-10-30)